KART

Watertown International Airport

Watertown, New York, USA
METAR KART 122056Z AUTO 05004KT 9SM OVC018 M04/M07 A3020 RMK AO2 SLP236 T10391067 53017
Observed Flight Rules
Dec-12 @ 20:56 UTC (an hour ago) Marginal Visual Flight Rules
Wind Visibility Clouds
50° at 4 knots 9 miles
  • Overcast at 1,800' AGL
Temperatures Readings
Current -4°C / 25°F
Dewpoint -7°C / 19°F
Humidity 80%
Altimeter 30.2" Hg
Pressure 1023.6 hPa
Elevation 100
METAR KART 122056Z AUTO 05004KT 9SM OVC018 M04/M07 A3020 RMK AO2 SLP236 T10391067 53017
Observed Flight Rules
Dec-12 @ 20:56 UTC
(an hour ago)
MVFR
Wind Visibility
50° at 4 knots 9 miles
Clouds
  • Overcast at 1,800' AGL
Temperature Dewpoint
-4°C / 25°F -7°C / 19°F
Humidity Altimeter Pressure
80% 30.2" Hg 1023.6 hPa